Time;durP1;ratioP1;P1;durP2;ratioP2;P2;SDS_P1;SDS_P2;PMS_P1;PMS_P2;Temp;Humidity;BMP_temperature;BMP_pressure;BME280_temperature;BME280_humidity;BME280_pressure;Samples;Min_cycle;Max_cycle;Signal;HPM_P1;HPM_P2
2022/09/30 00:01:24;;;;;;;6.13;2.80;;;;;;;13.52;100.00;97740.03;5083360;27;20472;-93
2022/09/30 00:03:50;;;;;;;7.93;2.60;;;;;;;13.39;100.00;97718.50;5080753;28;20127;-91
2022/09/30 00:06:16;;;;;;;11.30;3.00;;;;;;;13.38;100.00;97721.25;5076277;28;20561;-91
2022/09/30 00:08:42;;;;;;;5.93;2.80;;;;;;;13.32;100.00;97739.34;5082401;28;20461;-92
2022/09/30 00:11:12;;;;;;;6.57;3.10;;;;;;;13.29;100.00;97744.84;5078310;28;20091;-92
2022/09/30 00:13:42;;;;;;;5.60;2.72;;;;;;;13.29;100.00;97758.19;5078469;28;20089;-92
2022/09/30 00:16:11;;;;;;;8.70;2.88;;;;;;;13.25;100.00;97751.28;5077708;27;20040;-92
2022/09/30 00:18:37;;;;;;;11.70;3.00;;;;;;;13.18;100.00;97755.19;5083302;28;20040;-93
2022/09/30 00:21:04;;;;;;;6.72;3.00;;;;;;;13.16;100.00;97754.41;5081165;27;20481;-91
2022/09/30 00:23:30;;;;;;;6.45;2.90;;;;;;;13.23;100.00;97770.97;5077530;28;20093;-93
2022/09/30 00:26:01;;;;;;;5.90;3.00;;;;;;;13.12;100.00;97750.22;5079984;28;20382;-93
2022/09/30 00:28:28;;;;;;;6.03;2.58;;;;;;;12.98;100.00;97752.75;5078696;28;20032;-90
2022/09/30 00:30:53;;;;;;;6.25;3.03;;;;;;;13.13;100.00;97779.47;5077153;27;20043;-92
2022/09/30 00:33:21;;;;;;;10.65;4.25;;;;;;;12.99;100.00;97757.13;5085063;27;20036;-93
2022/09/30 00:35:47;;;;;;;6.00;2.92;;;;;;;12.95;100.00;97746.63;5078233;27;20041;-92
2022/09/30 00:38:12;;;;;;;6.25;2.88;;;;;;;13.04;100.00;97761.28;5074180;28;20078;-91
2022/09/30 00:40:38;;;;;;;6.32;2.90;;;;;;;12.92;100.00;97749.47;5078818;28;20449;-92
2022/09/30 00:43:11;;;;;;;8.15;3.22;;;;;;;12.99;100.00;97779.34;5080500;27;20040;-92
2022/09/30 00:45:37;;;;;;;6.75;3.13;;;;;;;13.05;100.00;97778.16;5078365;27;20060;-92
2022/09/30 00:48:08;;;;;;;7.25;3.28;;;;;;;12.97;100.00;97764.34;5077189;28;20032;-91
2022/09/30 00:50:41;;;;;;;6.90;3.17;;;;;;;12.97;100.00;97773.22;5092635;27;20040;-93
2022/09/30 00:53:13;;;;;;;5.25;3.00;;;;;;;12.90;100.00;97763.81;5062576;28;20037;-91
2022/09/30 00:55:47;;;;;;;6.32;2.78;;;;;;;13.04;100.00;97774.63;5066947;28;20123;-92
2022/09/30 00:58:17;;;;;;;5.65;2.72;;;;;;;12.93;100.00;97748.50;5064049;27;20075;-92
2022/09/30 01:00:43;;;;;;;4.68;3.05;;;;;;;12.98;100.00;97761.59;5065003;27;20041;-92
2022/09/30 01:03:09;;;;;;;9.30;3.10;;;;;;;12.84;100.00;97754.34;5066754;27;20090;-91
2022/09/30 01:05:37;;;;;;;4.75;2.72;;;;;;;12.72;100.00;97739.81;5066569;28;20708;-92
2022/09/30 01:08:07;;;;;;;8.57;2.90;;;;;;;12.85;100.00;97763.19;5062115;28;20049;-91
2022/09/30 01:10:32;;;;;;;6.35;3.03;;;;;;;12.81;100.00;97757.16;5096691;27;20041;-92
2022/09/30 01:12:59;;;;;;;6.53;2.97;;;;;;;12.97;100.00;97770.56;5063250;28;20550;-92
2022/09/30 01:15:39;;;;;;;6.80;3.20;;;;;;;12.99;100.00;97766.00;5065504;27;20056;-91
2022/09/30 01:18:15;;;;;;;6.03;3.55;;;;;;;12.98;100.00;97756.25;5074770;27;20041;-92
2022/09/30 01:21:04;;;;;;;6.68;3.10;;;;;;;13.01;100.00;97766.78;5063439;28;20102;-91
2022/09/30 01:23:50;;;;;;;6.15;3.25;;;;;;;12.98;100.00;97753.59;5064252;27;20047;-93
2022/09/30 01:26:44;;;;;;;6.82;3.00;;;;;;;13.12;100.00;97779.56;5067172;28;20439;-91
2022/09/30 01:29:39;;;;;;;7.82;3.70;;;;;;;13.15;100.00;97787.41;5042145;27;20125;-91
2022/09/30 01:32:18;;;;;;;5.47;2.97;;;;;;;13.14;100.00;97783.00;5064212;28;20036;-92
2022/09/30 01:34:52;;;;;;;7.78;3.05;;;;;;;13.01;100.00;97764.13;5062838;28;20124;-92
2022/09/30 01:37:25;;;;;;;8.68;2.90;;;;;;;13.01;100.00;97777.47;5063595;28;20043;-91
2022/09/30 01:40:02;;;;;;;8.30;3.03;;;;;;;13.06;100.00;97786.09;5065678;27;20053;-91
2022/09/30 01:42:36;;;;;;;7.13;2.90;;;;;;;12.86;100.00;97772.91;5062076;28;20037;-92
2022/09/30 01:45:09;;;;;;;8.35;3.22;;;;;;;12.94;100.00;97803.59;5067916;27;20124;-92
2022/09/30 01:47:45;;;;;;;7.20;3.30;;;;;;;12.79;100.00;97774.19;5063296;28;20041;-92
2022/09/30 01:50:17;;;;;;;5.70;3.05;;;;;;;12.89;100.00;97794.97;5060946;28;20043;-90
2022/09/30 01:52:48;;;;;;;7.72;3.03;;;;;;;12.93;100.00;97780.53;5067839;27;20048;-91
2022/09/30 01:55:21;;;;;;;7.95;3.20;;;;;;;12.92;100.00;97788.59;5068187;27;20554;-92
2022/09/30 01:57:53;;;;;;;10.05;3.33;;;;;;;13.06;100.00;97793.25;5059558;28;20517;-90
2022/09/30 02:00:20;;;;;;;7.57;3.30;;;;;;;12.98;100.00;97756.25;5072277;27;20065;-90
2022/09/30 02:02:52;;;;;;;8.27;3.50;;;;;;;13.27;100.00;97802.78;5060729;28;20516;-90
2022/09/30 02:05:23;;;;;;;7.15;3.35;;;;;;;13.17;100.00;97782.84;5064859;27;20128;-90
2022/09/30 02:07:53;;;;;;;5.75;3.50;;;;;;;13.25;100.00;97802.00;5063505;28;20075;-92
2022/09/30 02:10:24;;;;;;;8.55;3.63;;;;;;;13.09;100.00;97787.72;5060673;28;20034;-89
2022/09/30 02:12:54;;;;;;;6.93;3.58;;;;;;;13.12;100.00;97807.13;5066128;28;20036;-89
2022/09/30 02:15:23;;;;;;;6.28;3.20;;;;;;;13.01;100.00;97790.81;5067263;27;20069;-90
2022/09/30 02:17:55;;;;;;;6.85;3.17;;;;;;;13.07;100.00;97821.63;5065545;28;20057;-89
2022/09/30 02:20:25;;;;;;;6.22;3.25;;;;;;;13.04;100.00;97822.66;5064737;27;20052;-92
2022/09/30 02:22:57;;;;;;;8.05;2.97;;;;;;;12.94;100.00;97803.59;5062474;28;20086;-91
2022/09/30 02:25:28;;;;;;;9.95;3.38;;;;;;;12.90;100.00;97810.06;5063292;28;20667;-90
2022/09/30 02:27:58;;;;;;;5.10;2.72;;;;;;;12.81;100.00;97810.50;5063261;27;20070;-90
2022/09/30 02:30:24;;;;;;;8.52;3.47;;;;;;;12.78;100.00;97800.00;5075331;27;20032;-90
2022/09/30 02:32:55;;;;;;;7.95;3.20;;;;;;;12.93;100.00;97822.38;5064397;27;20597;-92
2022/09/30 02:35:26;;;;;;;7.50;3.20;;;;;;;12.98;100.00;97824.78;5057307;28;20576;-91
2022/09/30 02:37:57;;;;;;;5.32;3.17;;;;;;;12.97;100.00;97818.59;5062367;28;20037;-90
2022/09/30 02:40:28;;;;;;;10.57;3.33;;;;;;;12.84;100.00;97804.19;5066094;28;20049;-90
2022/09/30 02:42:54;;;;;;;7.95;3.03;;;;;;;12.87;100.00;97810.19;5067522;27;20119;-91
2022/09/30 02:45:23;;;;;;;5.32;2.92;;;;;;;12.69;100.00;97776.47;5067489;27;20043;-90
2022/09/30 02:48:03;;;;;;;5.77;2.90;;;;;;;12.69;100.00;97779.16;5070422;27;20044;-89
2022/09/30 02:50:34;;;;;;;7.18;3.05;;;;;;;12.76;100.00;97758.34;5063346;28;20036;-90
2022/09/30 02:53:13;;;;;;;13.38;3.10;;;;;;;12.81;100.00;97770.50;5063791;27;20072;-90
2022/09/30 02:55:49;;;;;;;10.20;2.95;;;;;;;12.78;100.00;97776.00;5061431;28;20504;-91
2022/09/30 02:58:19;;;;;;;8.07;3.83;;;;;;;12.68;100.00;97767.59;5059349;28;20544;-92
2022/09/30 03:00:46;;;;;;;7.80;3.10;;;;;;;12.82;100.00;97796.25;5065265;27;20135;-90
2022/09/30 03:03:18;;;;;;;6.55;2.88;;;;;;;12.89;100.00;97789.63;5067791;27;20049;-90
2022/09/30 03:05:44;;;;;;;7.88;3.22;;;;;;;12.69;100.00;97787.16;5060527;27;20043;-92
2022/09/30 03:08:17;;;;;;;11.48;3.17;;;;;;;12.74;100.00;97790.44;5063510;28;20128;-90
2022/09/30 03:10:45;;;;;;;8.05;2.92;;;;;;;12.61;100.00;97768.00;5061340;27;20119;-92
2022/09/30 03:13:31;;;;;;;8.93;3.55;;;;;;;12.65;100.00;97753.56;5062273;28;20041;-91
2022/09/30 03:16:10;;;;;;;9.40;3.30;;;;;;;12.67;100.00;97770.34;5075383;27;20041;-91
2022/09/30 03:18:53;;;;;;;9.60;3.10;;;;;;;12.82;100.00;97795.38;5061964;27;20041;-90
2022/09/30 03:21:40;;;;;;;8.43;3.80;;;;;;;12.80;100.00;97789.25;5061413;28;20036;-91
2022/09/30 03:24:38;;;;;;;8.95;3.47;;;;;;;12.89;100.00;97807.47;5064513;27;20040;-91
2022/09/30 03:27:16;;;;;;;9.80;3.43;;;;;;;12.76;100.00;97791.22;5076205;27;20045;-92
2022/09/30 03:29:53;;;;;;;8.30;3.63;;;;;;;12.80;100.00;97794.59;5066080;27;20041;-91
2022/09/30 03:32:33;;;;;;;11.73;4.18;;;;;;;12.78;100.00;97772.47;5059778;28;20036;-90
2022/09/30 03:35:13;;;;;;;8.23;3.75;;;;;;;12.81;100.00;97781.16;5061685;28;20109;-90
2022/09/30 03:37:53;;;;;;;7.65;3.28;;;;;;;12.82;100.00;97788.22;5068916;27;20509;-90
2022/09/30 03:40:26;;;;;;;11.52;4.05;;;;;;;12.84;100.00;97785.50;5061170;28;20038;-92
2022/09/30 03:42:57;;;;;;;10.10;3.47;;;;;;;12.94;100.00;97792.91;5073293;27;20052;-90
2022/09/30 03:45:30;;;;;;;10.63;3.45;;;;;;;12.90;100.00;97786.03;5071745;27;20035;-90
2022/09/30 03:48:00;;;;;;;9.02;3.95;;;;;;;13.04;100.00;97801.31;5063703;27;20064;-91
2022/09/30 03:50:30;;;;;;;11.23;3.60;;;;;;;12.93;100.00;97766.31;5064985;27;20030;-91
2022/09/30 03:52:56;;;;;;;11.27;3.88;;;;;;;13.08;100.00;97778.00;5061839;27;20437;-91
2022/09/30 03:55:23;;;;;;;15.35;3.78;;;;;;;13.23;100.00;97790.53;5071021;27;20509;-90
2022/09/30 03:57:50;;;;;;;12.27;3.80;;;;;;;13.32;100.00;97787.41;5064862;27;20481;-90
2022/09/30 04:00:17;;;;;;;8.82;3.63;;;;;;;13.41;100.00;97796.72;5062738;28;20481;-90
2022/09/30 04:02:44;;;;;;;18.48;4.15;;;;;;;13.48;100.00;97808.78;5063650;28;20041;-91
2022/09/30 04:05:12;;;;;;;9.30;3.28;;;;;;;13.44;100.00;97796.53;5072875;27;20060;-89
2022/09/30 04:07:40;;;;;;;14.80;3.60;;;;;;;13.51;100.00;97802.41;5061181;27;20038;-89
2022/09/30 04:10:06;;;;;;;9.02;3.80;;;;;;;13.49;100.00;97789.16;5059632;27;20478;-90
2022/09/30 04:12:32;;;;;;;13.68;3.88;;;;;;;13.40;100.00;97783.44;5077312;27;20049;-91
2022/09/30 04:14:58;;;;;;;9.10;3.88;;;;;;;13.27;100.00;97776.06;5067620;27;20048;-92
2022/09/30 04:17:24;;;;;;;10.38;3.58;;;;;;;13.31;100.00;97774.97;5061986;28;20066;-92
2022/09/30 04:19:49;;;;;;;12.70;4.00;;;;;;;13.39;100.00;97779.91;5064200;28;20093;-91
2022/09/30 04:22:15;;;;;;;8.77;3.50;;;;;;;13.43;100.00;97797.50;5077608;27;20097;-91
2022/09/30 04:24:42;;;;;;;7.50;3.78;;;;;;;13.28;100.00;97772.47;5071557;27;20123;-90
2022/09/30 04:27:08;;;;;;;9.45;3.30;;;;;;;13.24;100.00;97762.88;5062471;27;20497;-90
2022/09/30 04:29:34;;;;;;;9.68;3.50;;;;;;;13.46;100.00;97804.47;5062214;28;20043;-92
2022/09/30 04:32:00;;;;;;;15.55;3.88;;;;;;;13.45;100.00;97813.44;5064318;27;20040;-92
2022/09/30 04:34:26;;;;;;;9.85;4.35;;;;;;;13.33;100.00;97798.94;5058898;28;20137;-91
2022/09/30 04:36:52;;;;;;;10.27;3.88;;;;;;;13.33;100.00;97807.78;5070968;27;20049;-92
2022/09/30 04:39:18;;;;;;;11.60;3.72;;;;;;;13.37;100.00;97805.84;5069475;27;20045;-92
2022/09/30 04:41:45;;;;;;;8.50;3.70;;;;;;;13.29;100.00;97795.59;5068133;27;20027;-92
2022/09/30 04:44:12;;;;;;;7.40;3.78;;;;;;;13.45;100.00;97818.78;5077830;27;20073;-93
2022/09/30 04:46:38;;;;;;;10.63;4.05;;;;;;;13.54;100.00;97826.28;5078366;27;20044;-91
2022/09/30 04:49:04;;;;;;;9.60;4.15;;;;;;;13.51;100.00;97818.44;5067496;27;20044;-92
2022/09/30 04:51:31;;;;;;;9.38;3.67;;;;;;;13.49;100.00;97825.69;5059140;28;20498;-93
2022/09/30 04:53:57;;;;;;;12.75;3.90;;;;;;;13.59;100.00;97848.25;5066985;27;20406;-91
2022/09/30 04:56:25;;;;;;;16.50;4.22;;;;;;;13.55;100.00;97844.91;5073156;27;20127;-92
2022/09/30 04:58:53;;;;;;;11.15;3.75;;;;;;;13.57;100.00;97852.81;5063400;28;20106;-91
2022/09/30 05:01:20;;;;;;;8.30;3.50;;;;;;;13.48;100.00;97848.00;5071226;27;20028;-92
2022/09/30 05:03:46;;;;;;;12.40;4.75;;;;;;;13.47;100.00;97852.47;5070459;27;20040;-90
2022/09/30 05:06:13;;;;;;;12.25;4.75;;;;;;;13.35;100.00;97839.75;5065234;28;20045;-91
2022/09/30 05:08:38;;;;;;;8.40;3.78;;;;;;;13.41;100.00;97854.59;5064451;27;20037;-90
2022/09/30 05:11:10;;;;;;;10.07;3.97;;;;;;;13.39;100.00;97878.72;5066035;27;20050;-92
2022/09/30 05:13:38;;;;;;;12.05;4.00;;;;;;;13.19;100.00;97861.03;5062966;28;20047;-90
2022/09/30 05:16:06;;;;;;;12.90;4.53;;;;;;;13.26;100.00;97885.63;5063275;28;20048;-91
2022/09/30 05:18:33;;;;;;;9.18;5.00;;;;;;;13.19;100.00;97892.22;5078518;27;20110;-92
2022/09/30 05:20:59;;;;;;;20.80;5.70;;;;;;;13.02;100.00;97885.06;5067155;28;20093;-92
2022/09/30 05:23:26;;;;;;;15.05;6.13;;;;;;;12.64;100.00;97863.84;5067317;28;20040;-90
2022/09/30 05:25:52;;;;;;;11.60;5.70;;;;;;;12.65;100.00;97885.13;5067586;28;20040;-91
2022/09/30 05:28:19;;;;;;;10.55;5.10;;;;;;;12.57;100.00;97870.44;5066694;28;20041;-91
2022/09/30 05:30:45;;;;;;;11.65;5.72;;;;;;;12.77;100.00;97883.63;5085871;27;20062;-93
2022/09/30 05:33:13;;;;;;;15.43;5.70;;;;;;;12.82;100.00;97878.94;5065529;28;20040;-92
2022/09/30 05:35:41;;;;;;;13.98;5.10;;;;;;;12.87;100.00;97878.72;5064441;27;20140;-91
2022/09/30 05:38:08;;;;;;;12.95;5.72;;;;;;;12.91;100.00;97893.63;5069713;27;20041;-91
2022/09/30 05:40:36;;;;;;;12.73;5.13;;;;;;;13.00;100.00;97897.63;5067031;27;20124;-91
2022/09/30 05:43:02;;;;;;;14.30;4.87;;;;;;;13.01;100.00;97896.69;5065998;28;20060;-91
2022/09/30 05:45:27;;;;;;;11.15;4.72;;;;;;;13.16;100.00;97901.22;5066593;27;20059;-92
2022/09/30 05:47:54;;;;;;;12.27;5.10;;;;;;;13.24;100.00;97912.38;5067882;28;20082;-91
2022/09/30 05:50:23;;;;;;;12.32;4.90;;;;;;;13.30;100.00;97914.78;5061145;28;20477;-91
2022/09/30 05:52:49;;;;;;;;;;;;;;;13.36;100.00;97916.28;5066284;28;20045;-93
2022/09/30 05:55:15;;;;;;;14.05;5.55;;;;;;;13.37;100.00;97925.16;5076845;27;19977;-92
2022/09/30 05:57:42;;;;;;;13.23;5.45;;;;;;;13.38;100.00;97925.06;5063385;27;20127;-92
2022/09/30 06:00:09;;;;;;;12.13;4.80;;;;;;;13.31;100.00;97915.63;5065166;27;20036;-93
2022/09/30 06:02:37;;;;;;;11.73;5.28;;;;;;;13.49;100.00;97928.03;5064946;28;20495;-92
2022/09/30 06:05:03;;;;;;;10.85;4.80;;;;;;;13.43;100.00;97895.44;5070308;27;20071;-90
2022/09/30 06:07:36;;;;;;;12.88;4.65;;;;;;;13.75;100.00;97920.47;5061660;28;20044;-91
2022/09/30 06:10:03;;;;;;;15.70;4.53;;;;;;;13.75;100.00;97907.09;5106169;27;20349;-91
2022/09/30 06:12:29;;;;;;;11.85;4.20;;;;;;;13.90;100.00;97934.78;5089165;27;20048;-92
2022/09/30 06:14:55;;;;;;;16.75;4.47;;;;;;;13.79;100.00;97903.28;5070947;27;20036;-91
2022/09/30 06:17:21;;;;;;;13.13;3.95;;;;;;;13.74;100.00;97886.66;5071030;27;20405;-92
2022/09/30 06:19:48;;;;;;;10.02;3.95;;;;;;;13.90;100.00;97913.41;5068765;27;20490;-92
2022/09/30 06:22:15;;;;;;;8.63;3.70;;;;;;;14.03;100.00;97926.97;5065164;28;20056;-91
2022/09/30 06:24:42;;;;;;;17.75;4.20;;;;;;;14.00;100.00;97922.66;5060349;27;20037;-92
2022/09/30 06:27:08;;;;;;;9.70;3.67;;;;;;;14.14;100.00;97936.13;5059644;28;20037;-93
2022/09/30 06:29:34;;;;;;;10.70;3.88;;;;;;;14.10;100.00;97934.56;5061362;28;20045;-93
2022/09/30 06:32:01;;;;;;;8.20;3.35;;;;;;;14.11;100.00;97930.09;5065553;28;20037;-92
2022/09/30 06:34:27;;;;;;;9.07;3.67;;;;;;;13.95;100.00;97909.53;5071938;28;20040;-92
2022/09/30 06:36:53;;;;;;;11.32;3.67;;;;;;;13.98;100.00;97928.06;5083450;27;20044;-90
2022/09/30 06:39:19;;;;;;;9.93;4.13;;;;;;;13.96;100.00;97931.78;5065460;27;20119;-93
2022/09/30 06:41:46;;;;;;;16.17;6.53;;;;;;;14.01;100.00;97950.25;5059856;28;20033;-92
2022/09/30 06:44:12;;;;;;;14.30;7.65;;;;;;;13.82;100.00;97929.00;5063558;28;20044;-93
2022/09/30 06:46:38;;;;;;;15.07;7.63;;;;;;;13.81;100.00;97921.91;5058582;28;20141;-92
2022/09/30 06:49:06;;;;;;;17.23;7.32;;;;;;;14.06;100.00;97957.06;5061090;27;20489;-92
2022/09/30 06:51:32;;;;;;;12.50;4.50;;;;;;;14.14;100.00;97952.19;5071028;28;20036;-94
2022/09/30 06:53:58;;;;;;;14.25;4.55;;;;;;;14.28;100.00;97955.91;5066129;27;20052;-91
2022/09/30 06:56:24;;;;;;;8.85;4.03;;;;;;;14.30;100.00;97936.16;5063411;28;20059;-92
2022/09/30 06:58:52;;;;;;;10.90;3.60;;;;;;;14.33;100.00;97921.72;5064454;28;20402;-92
2022/09/30 07:01:44;;;;;;;8.85;4.35;;;;;;;14.30;100.00;97904.06;5059762;27;20513;-93
2022/09/30 07:04:31;;;;;;;11.68;4.43;;;;;;;14.35;100.00;97911.81;5060457;28;20045;-93
2022/09/30 07:07:08;;;;;;;12.73;3.40;;;;;;;14.54;100.00;97938.41;5061871;28;20040;-93
2022/09/30 07:09:37;;;;;;;7.15;3.10;;;;;;;14.36;100.00;97910.88;5062540;28;20041;-92
2022/09/30 07:12:41;;;;;;;7.22;3.20;;;;;;;14.47;100.00;97932.53;5038862;28;20051;-90
2022/09/30 07:15:22;;;;;;;8.88;3.20;;;;;;;14.46;100.00;97920.09;5069283;28;20544;-92
2022/09/30 07:18:19;;;;;;;8.93;3.40;;;;;;;14.67;100.00;97947.50;5063076;28;20055;-90
2022/09/30 07:21:04;;;;;;;;;;;;;;;;;;;;;
2022/09/30 07:24:14;;;;;;;12.75;3.55;;;;;;;14.74;100.00;97921.25;5042561;28;20450;-91
2022/09/30 07:27:02;;;;;;;;;;;;;;;;;;;;;
2022/09/30 07:29:28;;;;;;;;;;;;;;;15.22;100.00;97959.47;5072570;28;20409;-93
2022/09/30 07:32:42;;;;;;;6.95;2.95;;;;;;;15.49;100.00;97958.81;5053501;28;19916;-93
2022/09/30 07:38:16;;;;;;;6.20;3.10;;;;;;;16.28;100.00;97973.66;5050021;28;20113;-94
2022/09/30 07:41:27;;;;;;;10.75;5.18;;;;;;;16.44;100.00;97942.22;5053100;28;20091;-94
2022/09/30 07:44:05;;;;;;;20.20;7.68;;;;;;;16.67;100.00;97946.09;4972756;28;20062;-94
2022/09/30 07:47:01;;;;;;;16.77;6.90;;;;;;;16.76;100.00;97947.31;5056064;28;20037;-92
2022/09/30 07:49:49;;;;;;;13.60;7.63;;;;;;;17.28;100.00;97940.34;5061553;28;20040;-94
2022/09/30 07:52:27;;;;;;;16.85;7.47;;;;;;;17.81;99.18;97952.78;5057592;27;20049;-91
2022/09/30 07:55:06;;;;;;;7.60;3.33;;;;;;;18.18;92.47;97965.50;5088534;27;20124;-93
2022/09/30 07:57:36;;;;;;;11.18;3.97;;;;;;;18.76;89.21;97992.75;5087388;27;20042;-94
2022/09/30 08:00:19;;;;;;;7.95;3.55;;;;;;;18.96;80.87;97985.97;5135278;27;20036;-92
2022/09/30 08:03:26;;;;;;;7.30;3.00;;;;;;;19.31;80.09;98006.72;5085386;28;20045;-93
2022/09/30 08:06:37;;;;;;;6.72;2.80;;;;;;;18.93;77.49;98011.25;5068774;27;20071;-94
2022/09/30 08:09:16;;;;;;;7.88;2.78;;;;;;;18.45;74.90;97981.50;5087030;28;20493;-94
2022/09/30 08:19:42;;;;;;;12.02;3.35;;;;;;;18.21;82.95;97976.91;5034772;28;20033;-94
2022/09/30 08:29:22;;;;;;;9.05;3.40;;;;;;;18.26;85.81;97990.06;5076771;27;20102;-95
2022/09/30 09:35:43;;;;;;;11.52;4.70;;;;;;;17.90;87.47;98002.41;5074316;28;20045;-91
2022/09/30 09:38:47;;;;;;;;;;;;;;;;;;;;;
2022/09/30 09:41:41;;;;;;;9.25;3.80;;;;;;;17.81;91.51;97974.28;5074977;28;20040;-91
2022/09/30 09:44:53;;;;;;;;;;;;;;;;;;;;;
2022/09/30 09:47:59;;;;;;;;;;;;;;;;;;;;;
2022/09/30 09:51:18;;;;;;;8.18;4.10;;;;;;;18.26;94.01;97953.22;5076242;28;20458;-93
2022/09/30 09:54:31;;;;;;;7.88;3.83;;;;;;;18.35;91.50;97948.16;5083699;28;20052;-92
2022/09/30 09:57:39;;;;;;;12.38;4.00;;;;;;;18.42;88.54;97990.66;5025336;28;20056;-92
2022/09/30 10:01:19;;;;;;;;;;;;;;;;;;;;;
2022/09/30 10:12:22;;;;;;;9.55;3.85;;;;;;;17.58;100.00;97975.88;4766858;30;20608;-96
2022/09/30 10:23:08;;;;;;;;;;;;;;;;;;;;;
2022/09/30 10:46:01;;;;;;;11.82;4.18;;;;;;;16.47;100.00;98006.41;6083085;22;4916875;-94
2022/09/30 10:48:53;;;;;;;7.75;2.78;;;;;;;16.16;100.00;98008.34;6294591;22;20015;-93
2022/09/30 10:51:46;;;;;;;10.60;3.08;;;;;;;16.22;100.00;98056.25;6289578;22;20034;-92
2022/09/30 10:54:47;;;;;;;6.45;2.47;;;;;;;16.41;100.00;98041.69;6294090;22;20053;-91
2022/09/30 10:57:35;;;;;;;4.68;2.40;;;;;;;16.49;100.00;98022.44;6294800;22;20069;-91
2022/09/30 11:00:33;;;;;;;9.02;2.60;;;;;;;16.18;100.00;98014.47;6296515;22;20022;-92
2022/09/30 11:03:47;;;;;;;4.65;2.42;;;;;;;15.98;100.00;98005.00;6294928;22;20050;-92
2022/09/30 11:06:55;;;;;;;11.57;3.13;;;;;;;16.20;100.00;98071.59;6293335;22;20341;-91
2022/09/30 11:09:46;;;;;;;9.35;4.20;;;;;;;16.29;100.00;98074.66;6286869;22;20034;-93
2022/09/30 11:12:40;;;;;;;11.05;4.72;;;;;;;16.04;100.00;98040.41;6286189;22;20026;-93
2022/09/30 11:15:39;;;;;;;11.43;4.30;;;;;;;16.09;100.00;98036.50;6287444;22;20044;-93
2022/09/30 11:18:37;;;;;;;11.40;4.53;;;;;;;16.28;100.00;98038.91;6287901;22;20034;-94
2022/09/30 11:21:28;;;;;;;10.40;3.80;;;;;;;16.38;100.00;98039.22;6291599;22;20090;-95
2022/09/30 11:24:24;;;;;;;9.48;4.10;;;;;;;16.53;100.00;98081.19;6292012;22;20051;-93
2022/09/30 11:27:16;;;;;;;9.45;4.20;;;;;;;16.47;100.00;98064.59;6293768;22;20050;-93
2022/09/30 11:30:10;;;;;;;9.05;3.85;;;;;;;16.49;100.00;98074.28;6293441;22;20054;-93
2022/09/30 11:33:12;;;;;;;13.27;4.70;;;;;;;16.57;100.00;98089.94;6295119;22;20097;-92
2022/09/30 11:36:16;;;;;;;11.32;4.47;;;;;;;16.35;100.00;98047.44;6293662;22;20034;-92
2022/09/30 11:39:29;;;;;;;9.85;4.45;;;;;;;16.41;100.00;98039.84;6294919;22;20054;-92
2022/09/30 11:42:23;;;;;;;9.57;4.47;;;;;;;16.47;100.00;98032.41;6292970;22;20062;-92
2022/09/30 11:45:35;;;;;;;8.85;4.53;;;;;;;16.41;100.00;98023.75;6288608;22;20087;-92
2022/09/30 11:49:07;;;;;;;8.90;3.97;;;;;;;16.40;100.00;98015.81;6287681;22;20027;-91
2022/09/30 11:52:35;;;;;;;12.77;4.47;;;;;;;16.45;100.00;98020.91;6290805;22;20026;-91
2022/09/30 11:55:56;;;;;;;14.45;4.80;;;;;;;16.66;100.00;98064.31;6259994;23;20412;-94
2022/09/30 11:58:49;;;;;;;14.50;4.43;;;;;;;16.46;100.00;98081.66;6259691;23;20146;-92
2022/09/30 12:01:57;;;;;;;14.05;4.72;;;;;;;16.30;100.00;98084.44;6255153;23;20023;-90
2022/09/30 12:04:51;;;;;;;9.38;4.47;;;;;;;16.15;100.00;98070.97;6257365;23;20031;-93
2022/09/30 12:07:42;;;;;;;8.40;4.85;;;;;;;16.30;100.00;98106.75;6251313;23;20055;-93
2022/09/30 12:10:32;;;;;;;14.20;4.72;;;;;;;16.36;100.00;98106.38;6251378;23;20085;-92
2022/09/30 12:13:30;;;;;;;8.73;4.88;;;;;;;16.14;100.00;98077.31;6253690;23;20027;-93
2022/09/30 12:16:23;;;;;;;10.68;4.72;;;;;;;16.06;100.00;98070.69;6257589;23;20097;-93
2022/09/30 12:19:31;;;;;;;12.70;5.25;;;;;;;16.02;100.00;98086.09;6257022;23;20046;-92
2022/09/30 12:22:19;;;;;;;12.32;4.72;;;;;;;16.04;100.00;98116.38;6252499;23;20027;-92
2022/09/30 12:25:26;;;;;;;10.13;4.63;;;;;;;16.00;100.00;98071.91;6255240;23;20099;-94
2022/09/30 12:42:02;;;;;;;16.55;5.43;;;;;;;16.04;100.00;98064.56;5153989;27;20405;-92
2022/09/30 12:45:17;;;;;;;8.80;4.85;;;;;;;16.22;100.00;98106.34;5152656;27;20123;-94
2022/09/30 12:48:07;;;;;;;10.30;5.00;;;;;;;16.08;100.00;98092.91;5145045;27;20034;-94
2022/09/30 12:50:56;;;;;;;9.05;4.72;;;;;;;16.02;100.00;98081.59;5154226;27;20556;-92
2022/09/30 12:53:41;;;;;;;11.13;5.47;;;;;;;15.99;100.00;98097.03;5150023;27;20050;-92
2022/09/30 12:56:29;;;;;;;13.48;5.35;;;;;;;16.09;100.00;98132.19;5155380;27;20058;-91
2022/09/30 12:59:18;;;;;;;14.82;5.82;;;;;;;16.02;100.00;98110.22;5153489;27;20045;-90
2022/09/30 13:02:17;;;;;;;12.18;5.32;;;;;;;16.15;100.00;98139.88;5154229;27;20066;-94
2022/09/30 13:05:45;;;;;;;16.63;5.50;;;;;;;16.16;100.00;98131.75;5153121;27;20081;-93
2022/09/30 13:09:02;;;;;;;9.27;5.23;;;;;;;16.01;100.00;98084.38;5149253;27;20130;-91
2022/09/30 13:12:12;;;;;;;11.70;5.82;;;;;;;16.33;100.00;98094.97;5153592;27;20057;-92
2022/09/30 13:15:41;;;;;;;10.93;5.72;;;;;;;16.54;100.00;98098.16;5154361;27;20091;-92
2022/09/30 13:19:08;;;;;;;14.05;5.95;;;;;;;16.82;100.00;98108.91;5152815;27;20187;-94
2022/09/30 13:22:46;;;;;;;9.52;5.13;;;;;;;16.86;100.00;98098.00;5121303;27;20054;-94
2022/09/30 13:26:04;;;;;;;8.43;4.43;;;;;;;17.08;100.00;98089.41;5093597;28;20055;-92
2022/09/30 13:29:04;;;;;;;9.32;4.93;;;;;;;17.22;100.00;98082.19;5093499;28;20077;-93
2022/09/30 13:32:29;;;;;;;9.73;4.75;;;;;;;16.99;100.00;98059.50;5094393;28;20051;-92
2022/09/30 13:35:33;;;;;;;13.02;5.60;;;;;;;17.38;100.00;98063.22;5093252;28;20059;-90
2022/09/30 13:38:23;;;;;;;16.38;5.70;;;;;;;17.73;100.00;98069.91;5089590;28;20106;-94
2022/09/30 13:41:17;;;;;;;16.20;5.80;;;;;;;17.89;100.00;98049.13;5081843;28;20114;-94
2022/09/30 13:44:13;;;;;;;12.48;5.90;;;;;;;17.72;100.00;98023.34;5076290;28;20063;-94
2022/09/30 13:47:09;;;;;;;12.93;5.40;;;;;;;18.26;100.00;98044.75;5076580;28;20141;-92
2022/09/30 13:49:59;;;;;;;11.10;5.00;;;;;;;18.42;100.00;98049.91;5076384;28;20051;-94
2022/09/30 13:52:59;;;;;;;9.70;4.97;;;;;;;18.47;100.00;98057.66;5075498;28;20509;-93
2022/09/30 13:55:49;;;;;;;10.88;4.82;;;;;;;18.36;100.00;98009.09;5078761;28;20096;-95
2022/09/30 13:59:23;;;;;;;;;;;;;;;;;;;;;
2022/09/30 14:02:56;;;;;;;8.07;4.60;;;;;;;18.43;99.50;98027.41;5128239;27;20042;-92
2022/09/30 14:06:35;;;;;;;;;;;;;;;;;;;;;
2022/09/30 14:13:50;;;;;;;10.50;4.38;;;;;;;18.00;100.00;98027.72;4976423;28;20125;-94
2022/09/30 14:21:06;;;;;;;11.02;4.82;;;;;;;18.29;100.00;98026.66;4966481;29;20078;-95
2022/09/30 14:28:17;;;;;;;11.63;5.82;;;;;;;18.64;100.00;98010.66;4969289;29;20082;-94
2022/09/30 14:31:40;;;;;;;11.48;5.63;;;;;;;18.80;100.00;98005.06;4958231;29;20136;-93
2022/09/30 14:34:32;;;;;;;13.02;5.80;;;;;;;19.04;97.88;98019.44;4962959;29;20136;-95
2022/09/30 14:37:38;;;;;;;12.38;5.20;;;;;;;19.29;91.48;98015.78;4964689;29;20063;-92
2022/09/30 14:40:29;;;;;;;10.60;5.82;;;;;;;19.44;91.67;98016.47;5003301;28;20065;-90
2022/09/30 14:50:51;;;;;;;9.52;5.30;;;;;;;19.28;88.18;98024.00;5042745;28;20040;-95
2022/09/30 14:53:39;;;;;;;11.02;5.15;;;;;;;19.22;88.30;98033.38;5017348;28;20057;-92
2022/09/30 14:56:29;;;;;;;11.48;6.07;;;;;;;19.09;86.72;98029.88;5048735;28;20121;-94
2022/09/30 14:59:37;;;;;;;12.38;5.78;;;;;;;19.27;85.83;98055.47;5062892;28;20106;-94
2022/09/30 15:02:48;;;;;;;10.00;5.60;;;;;;;19.22;86.35;98051.41;5063301;28;20094;-94
2022/09/30 15:05:42;;;;;;;13.13;6.13;;;;;;;19.19;88.56;98060.56;5059226;28;20056;-93
2022/09/30 15:08:28;;;;;;;11.55;5.88;;;;;;;18.93;88.50;98035.50;5059746;28;20063;-93
2022/09/30 15:11:20;;;;;;;12.70;5.88;;;;;;;19.08;88.04;98055.97;5130150;27;20034;-94
2022/09/30 15:14:08;;;;;;;12.88;5.55;;;;;;;19.18;86.47;98047.22;5144064;27;20062;-94